createdAt,value
2022-10-04T00:02:26.655Z,3.90
2022-10-04T00:12:34.068Z,3.30
2022-10-04T00:23:18.319Z,2.90
2022-10-04T00:33:35.596Z,2.90
2022-10-04T00:43:44.133Z,3.00
2022-10-04T00:53:53.965Z,3.30
2022-10-04T01:04:05.883Z,3.10
2022-10-04T01:14:36.868Z,9.80
2022-10-04T01:46:22.263Z,3.60
2022-10-04T02:54:57.926Z,3.80
2022-10-04T03:05:05.466Z,2.60
2022-10-04T03:15:14.108Z,3.50
2022-10-04T03:25:21.249Z,10.00
2022-10-04T03:35:27.274Z,8.50
2022-10-04T03:45:35.409Z,7.50
2022-10-04T03:55:45.987Z,4.10
2022-10-04T04:05:54.130Z,4.30
2022-10-04T04:16:02.504Z,4.90
2022-10-04T04:26:14.616Z,9.00
2022-10-04T04:36:21.885Z,9.50
2022-10-04T04:46:30.471Z,4.80
2022-10-04T04:56:38.608Z,8.80
2022-10-04T05:06:47.327Z,6.30
2022-10-04T05:16:56.518Z,4.20
2022-10-04T05:27:07.311Z,3.30
2022-10-04T05:37:34.226Z,4.90
2022-10-04T05:47:43.768Z,3.90
2022-10-04T05:58:07.407Z,4.00
2022-10-04T06:08:14.637Z,3.70
2022-10-04T06:18:34.517Z,5.50
2022-10-04T06:28:47.133Z,5.00
2022-10-04T06:39:12.311Z,5.40
2022-10-04T06:49:37.466Z,4.80
2022-10-04T06:59:48.022Z,4.60
2022-10-04T07:09:56.231Z,4.80
2022-10-04T07:20:06.519Z,5.90
2022-10-04T07:30:17.975Z,6.60
2022-10-04T07:40:27.493Z,4.20
2022-10-04T07:50:41.782Z,4.90
2022-10-04T08:00:48.533Z,4.30
2022-10-04T08:10:57.310Z,4.80
2022-10-04T08:21:06.714Z,3.70
2022-10-04T08:41:51.713Z,4.00
2022-10-04T08:52:21.730Z,4.50
2022-10-04T09:03:05.398Z,4.70
2022-10-04T09:13:44.740Z,4.10
2022-10-04T09:24:27.608Z,3.80
2022-10-04T09:34:37.464Z,4.20
2022-10-04T09:44:57.430Z,3.00
2022-10-04T09:55:06.956Z,2.60
2022-10-04T10:05:35.641Z,2.90
2022-10-04T10:15:59.742Z,3.30
2022-10-04T10:26:26.874Z,3.20
2022-10-04T10:36:58.723Z,3.00
2022-10-04T10:47:08.585Z,3.70
2022-10-04T10:57:30.628Z,5.00
2022-10-04T11:07:51.764Z,3.50
2022-10-04T11:18:20.492Z,2.60
2022-10-04T11:28:26.744Z,3.80
2022-10-04T11:38:54.048Z,4.60
2022-10-04T11:49:02.851Z,4.00
2022-10-04T11:59:25.610Z,2.50
2022-10-04T12:09:30.675Z,3.20
2022-10-04T12:19:55.733Z,2.10
2022-10-04T12:30:06.233Z,1.60
2022-10-04T12:40:32.572Z,1.60
2022-10-04T12:50:47.654Z,2.40
2022-10-04T13:01:02.215Z,2.50
2022-10-04T13:11:37.001Z,2.30
2022-10-04T13:22:11.914Z,2.30
2022-10-04T13:32:27.375Z,3.50
2022-10-04T13:42:41.753Z,1.90
2022-10-04T13:53:10.966Z,2.90
2022-10-04T14:03:31.828Z,2.00
2022-10-04T14:14:07.983Z,1.70
2022-10-04T14:24:51.992Z,2.40
2022-10-04T14:35:02.410Z,2.00
2022-10-04T14:45:19.094Z,2.30
2022-10-04T14:55:32.090Z,2.00
2022-10-04T15:06:00.489Z,2.00
2022-10-04T15:16:14.234Z,2.20
2022-10-04T15:26:50.275Z,2.10
2022-10-04T15:37:04.963Z,1.80
2022-10-04T15:47:12.637Z,3.10
2022-10-04T15:57:21.790Z,6.70
2022-10-04T16:07:49.066Z,7.70
2022-10-04T16:18:28.186Z,20.00
2022-10-04T16:39:51.404Z,9.00
2022-10-04T16:50:01.967Z,16.20
2022-10-04T17:00:34.040Z,14.50
2022-10-04T17:11:13.396Z,14.70
2022-10-04T17:21:24.686Z,15.10
2022-10-04T17:31:44.788Z,15.30
2022-10-04T17:42:07.215Z,14.20
2022-10-04T18:03:02.477Z,13.00
2022-10-04T18:13:14.575Z,12.90
2022-10-04T18:23:28.409Z,16.20
2022-10-04T18:33:50.305Z,16.70
2022-10-04T18:44:14.462Z,14.90
2022-10-04T18:54:19.727Z,17.30
2022-10-04T19:04:35.132Z,16.40
2022-10-04T19:14:51.063Z,14.50
2022-10-04T19:25:09.725Z,13.90
2022-10-04T19:35:17.701Z,12.60
2022-10-04T19:45:27.236Z,14.70
2022-10-04T20:05:43.612Z,15.30
2022-10-04T20:15:49.341Z,13.90
2022-10-04T20:26:06.755Z,11.60
2022-10-04T20:36:15.391Z,11.10
2022-10-04T20:46:26.382Z,12.50
2022-10-04T20:56:37.664Z,13.20
2022-10-04T21:17:02.689Z,20.10
2022-10-04T21:37:18.904Z,17.20
2022-10-04T21:47:25.598Z,15.40
2022-10-04T21:57:35.525Z,15.10
2022-10-04T22:07:54.840Z,14.40
2022-10-04T22:18:01.901Z,14.10
2022-10-04T22:28:14.958Z,13.00
2022-10-04T22:38:22.995Z,14.50
2022-10-04T22:48:30.226Z,15.30
2022-10-04T22:58:37.274Z,12.00
2022-10-04T23:08:44.513Z,13.00
2022-10-04T23:18:51.850Z,10.90
2022-10-04T23:29:00.072Z,11.00
2022-10-04T23:39:15.045Z,14.20
2022-10-04T23:49:22.867Z,12.60
2022-10-04T23:59:30.193Z,11.80
